sensor_id;sensor_type;location;lat;lon;timestamp;P1;durP1;ratioP1;P2;durP2;ratioP2
45232;SDS011;30969;51.052;17.056;2022-10-18T00:04:59;11.50;;;6.22;;
45232;SDS011;30969;51.052;17.056;2022-10-18T00:10:03;10.52;;;6.65;;
45232;SDS011;30969;51.052;17.056;2022-10-18T00:15:09;12.77;;;5.88;;
45232;SDS011;30969;51.052;17.056;2022-10-18T00:20:13;8.75;;;6.63;;
45232;SDS011;30969;51.052;17.056;2022-10-18T00:25:16;10.50;;;6.68;;
45232;SDS011;30969;51.052;17.056;2022-10-18T00:30:22;8.75;;;6.07;;
45232;SDS011;30969;51.052;17.056;2022-10-18T00:35:26;9.15;;;6.93;;
45232;SDS011;30969;51.052;17.056;2022-10-18T00:40:29;13.82;;;6.82;;
45232;SDS011;30969;51.052;17.056;2022-10-18T00:45:34;9.35;;;5.78;;
45232;SDS011;30969;51.052;17.056;2022-10-18T00:50:37;10.02;;;6.95;;
45232;SDS011;30969;51.052;17.056;2022-10-18T00:55:42;13.15;;;6.68;;
45232;SDS011;30969;51.052;17.056;2022-10-18T01:00:47;9.82;;;6.15;;
45232;SDS011;30969;51.052;17.056;2022-10-18T01:11:43;13.85;;;6.95;;
45232;SDS011;30969;51.052;17.056;2022-10-18T01:17:05;6.97;;;5.57;;
45232;SDS011;30969;51.052;17.056;2022-10-18T01:22:16;9.07;;;5.70;;
45232;SDS011;30969;51.052;17.056;2022-10-18T01:32:53;8.02;;;6.32;;
45232;SDS011;30969;51.052;17.056;2022-10-18T01:38:00;10.27;;;6.38;;
45232;SDS011;30969;51.052;17.056;2022-10-18T01:43:08;7.60;;;5.43;;
45232;SDS011;30969;51.052;17.056;2022-10-18T01:48:15;11.60;;;6.25;;
45232;SDS011;30969;51.052;17.056;2022-10-18T01:53:23;12.18;;;6.65;;
45232;SDS011;30969;51.052;17.056;2022-10-18T01:58:34;11.57;;;5.87;;
45232;SDS011;30969;51.052;17.056;2022-10-18T02:03:45;11.60;;;6.40;;
45232;SDS011;30969;51.052;17.056;2022-10-18T02:08:53;13.35;;;6.13;;
45232;SDS011;30969;51.052;17.056;2022-10-18T02:14:02;10.23;;;6.60;;
45232;SDS011;30969;51.052;17.056;2022-10-18T02:19:11;8.45;;;6.03;;
45232;SDS011;30969;51.052;17.056;2022-10-18T02:24:18;11.18;;;6.57;;
45232;SDS011;30969;51.052;17.056;2022-10-18T02:29:25;9.02;;;6.03;;
45232;SDS011;30969;51.052;17.056;2022-10-18T02:34:33;11.60;;;7.43;;
45232;SDS011;30969;51.052;17.056;2022-10-18T02:39:41;9.45;;;6.15;;
45232;SDS011;30969;51.052;17.056;2022-10-18T02:44:47;7.63;;;6.68;;
45232;SDS011;30969;51.052;17.056;2022-10-18T02:49:52;9.88;;;6.20;;
45232;SDS011;30969;51.052;17.056;2022-10-18T02:54:56;10.18;;;6.20;;
45232;SDS011;30969;51.052;17.056;2022-10-18T02:59:59;9.23;;;6.65;;
45232;SDS011;30969;51.052;17.056;2022-10-18T03:05:04;9.18;;;6.25;;
45232;SDS011;30969;51.052;17.056;2022-10-18T03:10:08;8.18;;;6.28;;
45232;SDS011;30969;51.052;17.056;2022-10-18T03:15:11;10.40;;;6.75;;
45232;SDS011;30969;51.052;17.056;2022-10-18T03:20:16;11.82;;;7.07;;
45232;SDS011;30969;51.052;17.056;2022-10-18T03:25:20;10.98;;;6.57;;
45232;SDS011;30969;51.052;17.056;2022-10-18T03:30:23;8.65;;;7.00;;
45232;SDS011;30969;51.052;17.056;2022-10-18T03:35:28;12.02;;;6.22;;
45232;SDS011;30969;51.052;17.056;2022-10-18T03:40:32;7.95;;;6.03;;
45232;SDS011;30969;51.052;17.056;2022-10-18T03:45:35;18.15;;;11.80;;
45232;SDS011;30969;51.052;17.056;2022-10-18T03:50:40;19.08;;;13.20;;
45232;SDS011;30969;51.052;17.056;2022-10-18T03:55:48;13.05;;;7.00;;
45232;SDS011;30969;51.052;17.056;2022-10-18T04:00:53;9.98;;;6.88;;
45232;SDS011;30969;51.052;17.056;2022-10-18T04:05:58;10.13;;;7.30;;
45232;SDS011;30969;51.052;17.056;2022-10-18T04:11:04;10.90;;;6.70;;
45232;SDS011;30969;51.052;17.056;2022-10-18T04:16:10;17.83;;;9.32;;
45232;SDS011;30969;51.052;17.056;2022-10-18T04:21:15;11.05;;;7.32;;
45232;SDS011;30969;51.052;17.056;2022-10-18T04:26:18;14.40;;;7.10;;
45232;SDS011;30969;51.052;17.056;2022-10-18T04:31:21;11.23;;;6.97;;
45232;SDS011;30969;51.052;17.056;2022-10-18T04:36:27;8.80;;;7.13;;
45232;SDS011;30969;51.052;17.056;2022-10-18T04:41:30;11.93;;;6.88;;
45232;SDS011;30969;51.052;17.056;2022-10-18T04:46:33;10.07;;;6.63;;
45232;SDS011;30969;51.052;17.056;2022-10-18T04:51:38;12.20;;;8.23;;
45232;SDS011;30969;51.052;17.056;2022-10-18T04:56:42;14.70;;;8.43;;
45232;SDS011;30969;51.052;17.056;2022-10-18T05:01:47;17.92;;;7.53;;
45232;SDS011;30969;51.052;17.056;2022-10-18T05:06:52;12.38;;;8.02;;
45232;SDS011;30969;51.052;17.056;2022-10-18T05:11:56;14.85;;;8.68;;
45232;SDS011;30969;51.052;17.056;2022-10-18T05:16:59;19.63;;;9.82;;
45232;SDS011;30969;51.052;17.056;2022-10-18T05:22:03;12.98;;;9.68;;
45232;SDS011;30969;51.052;17.056;2022-10-18T05:27:07;12.32;;;8.77;;
45232;SDS011;30969;51.052;17.056;2022-10-18T05:32:11;20.90;;;9.75;;
45232;SDS011;30969;51.052;17.056;2022-10-18T05:37:16;14.60;;;9.82;;
45232;SDS011;30969;51.052;17.056;2022-10-18T05:42:24;17.17;;;8.95;;
45232;SDS011;30969;51.052;17.056;2022-10-18T05:47:28;10.38;;;7.82;;
45232;SDS011;30969;51.052;17.056;2022-10-18T05:52:32;16.98;;;9.18;;
45232;SDS011;30969;51.052;17.056;2022-10-18T05:57:36;19.42;;;10.18;;
45232;SDS011;30969;51.052;17.056;2022-10-18T06:02:39;24.33;;;12.90;;
45232;SDS011;30969;51.052;17.056;2022-10-18T06:07:44;18.67;;;11.13;;
45232;SDS011;30969;51.052;17.056;2022-10-18T06:12:47;16.65;;;9.00;;
45232;SDS011;30969;51.052;17.056;2022-10-18T06:17:50;21.23;;;9.38;;
45232;SDS011;30969;51.052;17.056;2022-10-18T06:22:55;14.10;;;8.25;;
45232;SDS011;30969;51.052;17.056;2022-10-18T06:27:58;12.32;;;7.47;;
45232;SDS011;30969;51.052;17.056;2022-10-18T06:33:02;12.48;;;8.13;;
45232;SDS011;30969;51.052;17.056;2022-10-18T06:38:06;11.52;;;7.43;;
45232;SDS011;30969;51.052;17.056;2022-10-18T06:43:10;14.20;;;7.78;;
45232;SDS011;30969;51.052;17.056;2022-10-18T06:48:22;14.43;;;8.48;;
45232;SDS011;30969;51.052;17.056;2022-10-18T06:53:28;18.02;;;8.40;;
45232;SDS011;30969;51.052;17.056;2022-10-18T06:58:33;12.70;;;8.05;;
45232;SDS011;30969;51.052;17.056;2022-10-18T07:03:37;15.30;;;8.57;;
45232;SDS011;30969;51.052;17.056;2022-10-18T07:08:42;13.40;;;8.23;;
45232;SDS011;30969;51.052;17.056;2022-10-18T07:13:46;13.93;;;7.63;;
45232;SDS011;30969;51.052;17.056;2022-10-18T07:18:50;12.18;;;8.70;;
45232;SDS011;30969;51.052;17.056;2022-10-18T07:23:54;10.13;;;7.78;;
45232;SDS011;30969;51.052;17.056;2022-10-18T07:28:59;14.63;;;8.15;;
45232;SDS011;30969;51.052;17.056;2022-10-18T07:34:04;11.63;;;7.88;;
45232;SDS011;30969;51.052;17.056;2022-10-18T07:39:10;17.48;;;8.90;;
45232;SDS011;30969;51.052;17.056;2022-10-18T07:44:13;14.13;;;9.18;;
45232;SDS011;30969;51.052;17.056;2022-10-18T07:49:16;12.45;;;8.40;;
45232;SDS011;30969;51.052;17.056;2022-10-18T07:54:21;13.18;;;8.55;;
45232;SDS011;30969;51.052;17.056;2022-10-18T07:59:25;15.02;;;8.65;;
45232;SDS011;30969;51.052;17.056;2022-10-18T08:04:28;14.80;;;8.80;;
45232;SDS011;30969;51.052;17.056;2022-10-18T08:09:33;19.70;;;9.25;;
45232;SDS011;30969;51.052;17.056;2022-10-18T08:14:36;12.43;;;8.25;;
45232;SDS011;30969;51.052;17.056;2022-10-18T08:19:39;13.48;;;9.57;;
45232;SDS011;30969;51.052;17.056;2022-10-18T08:30:08;12.70;;;9.00;;
45232;SDS011;30969;51.052;17.056;2022-10-18T08:35:13;12.98;;;8.73;;
45232;SDS011;30969;51.052;17.056;2022-10-18T08:40:18;11.95;;;8.05;;
45232;SDS011;30969;51.052;17.056;2022-10-18T08:45:22;10.30;;;8.27;;
45232;SDS011;30969;51.052;17.056;2022-10-18T08:50:41;12.48;;;8.55;;
45232;SDS011;30969;51.052;17.056;2022-10-18T08:55:48;12.90;;;8.52;;
45232;SDS011;30969;51.052;17.056;2022-10-18T09:00:56;16.30;;;8.07;;
45232;SDS011;30969;51.052;17.056;2022-10-18T09:06:10;12.30;;;7.90;;
45232;SDS011;30969;51.052;17.056;2022-10-18T09:11:28;16.63;;;8.18;;
45232;SDS011;30969;51.052;17.056;2022-10-18T09:16:49;10.10;;;8.18;;
45232;SDS011;30969;51.052;17.056;2022-10-18T09:22:00;13.65;;;8.38;;
45232;SDS011;30969;51.052;17.056;2022-10-18T09:27:13;15.83;;;7.67;;
45232;SDS011;30969;51.052;17.056;2022-10-18T09:32:22;11.13;;;7.70;;
45232;SDS011;30969;51.052;17.056;2022-10-18T09:37:32;12.65;;;7.35;;
45232;SDS011;30969;51.052;17.056;2022-10-18T09:42:38;11.48;;;7.70;;
45232;SDS011;30969;51.052;17.056;2022-10-18T09:47:46;10.70;;;7.72;;
45232;SDS011;30969;51.052;17.056;2022-10-18T09:53:03;12.25;;;7.63;;
45232;SDS011;30969;51.052;17.056;2022-10-18T09:58:15;10.13;;;7.68;;
45232;SDS011;30969;51.052;17.056;2022-10-18T10:03:20;11.38;;;8.02;;
45232;SDS011;30969;51.052;17.056;2022-10-18T10:08:26;12.38;;;8.00;;
45232;SDS011;30969;51.052;17.056;2022-10-18T10:13:37;13.50;;;7.80;;
45232;SDS011;30969;51.052;17.056;2022-10-18T10:18:40;11.65;;;8.05;;
45232;SDS011;30969;51.052;17.056;2022-10-18T10:23:45;14.10;;;8.27;;
45232;SDS011;30969;51.052;17.056;2022-10-18T10:28:57;21.97;;;8.47;;
45232;SDS011;30969;51.052;17.056;2022-10-18T10:34:01;15.52;;;8.95;;
45232;SDS011;30969;51.052;17.056;2022-10-18T10:39:10;12.57;;;7.93;;
45232;SDS011;30969;51.052;17.056;2022-10-18T10:44:21;12.02;;;7.55;;
45232;SDS011;30969;51.052;17.056;2022-10-18T10:49:28;11.20;;;7.82;;
45232;SDS011;30969;51.052;17.056;2022-10-18T10:54:43;10.93;;;7.40;;
45232;SDS011;30969;51.052;17.056;2022-10-18T10:59:54;13.60;;;8.43;;
45232;SDS011;30969;51.052;17.056;2022-10-18T11:05:14;11.85;;;8.65;;
45232;SDS011;30969;51.052;17.056;2022-10-18T11:10:20;20.85;;;8.48;;
45232;SDS011;30969;51.052;17.056;2022-10-18T11:15:30;11.30;;;8.48;;
45232;SDS011;30969;51.052;17.056;2022-10-18T11:20:39;12.50;;;7.80;;
45232;SDS011;30969;51.052;17.056;2022-10-18T11:25:58;10.43;;;7.47;;
45232;SDS011;30969;51.052;17.056;2022-10-18T11:31:15;11.38;;;7.18;;
45232;SDS011;30969;51.052;17.056;2022-10-18T11:36:26;10.23;;;8.02;;
45232;SDS011;30969;51.052;17.056;2022-10-18T11:41:38;9.50;;;7.90;;
45232;SDS011;30969;51.052;17.056;2022-10-18T11:46:51;10.75;;;7.93;;
45232;SDS011;30969;51.052;17.056;2022-10-18T11:52:03;11.82;;;7.70;;
45232;SDS011;30969;51.052;17.056;2022-10-18T12:02:29;9.32;;;7.75;;
45232;SDS011;30969;51.052;17.056;2022-10-18T12:07:49;10.10;;;7.40;;
45232;SDS011;30969;51.052;17.056;2022-10-18T12:13:03;10.50;;;7.28;;
45232;SDS011;30969;51.052;17.056;2022-10-18T12:18:11;11.50;;;7.20;;
45232;SDS011;30969;51.052;17.056;2022-10-18T12:23:32;10.80;;;7.35;;
45232;SDS011;30969;51.052;17.056;2022-10-18T12:28:43;11.18;;;6.75;;
45232;SDS011;30969;51.052;17.056;2022-10-18T12:33:55;10.18;;;7.28;;
45232;SDS011;30969;51.052;17.056;2022-10-18T12:39:03;8.82;;;6.55;;
45232;SDS011;30969;51.052;17.056;2022-10-18T12:44:17;12.77;;;6.80;;
45232;SDS011;30969;51.052;17.056;2022-10-18T12:49:23;8.10;;;6.10;;
45232;SDS011;30969;51.052;17.056;2022-10-18T12:54:31;12.55;;;6.72;;
45232;SDS011;30969;51.052;17.056;2022-10-18T12:59:40;10.93;;;6.70;;
45232;SDS011;30969;51.052;17.056;2022-10-18T13:04:46;11.32;;;6.95;;
45232;SDS011;30969;51.052;17.056;2022-10-18T13:15:34;11.23;;;7.97;;
45232;SDS011;30969;51.052;17.056;2022-10-18T13:20:47;9.82;;;6.80;;
45232;SDS011;30969;51.052;17.056;2022-10-18T13:26:00;8.88;;;6.68;;
45232;SDS011;30969;51.052;17.056;2022-10-18T13:31:16;9.80;;;7.72;;
45232;SDS011;30969;51.052;17.056;2022-10-18T13:36:26;11.75;;;8.00;;
45232;SDS011;30969;51.052;17.056;2022-10-18T13:47:11;9.43;;;7.47;;
45232;SDS011;30969;51.052;17.056;2022-10-18T13:52:17;8.98;;;7.45;;
45232;SDS011;30969;51.052;17.056;2022-10-18T13:57:29;14.45;;;7.93;;
45232;SDS011;30969;51.052;17.056;2022-10-18T14:08:43;10.02;;;7.22;;
45232;SDS011;30969;51.052;17.056;2022-10-18T14:13:55;14.18;;;8.15;;
45232;SDS011;30969;51.052;17.056;2022-10-18T14:19:10;15.32;;;8.18;;
45232;SDS011;30969;51.052;17.056;2022-10-18T14:24:20;11.82;;;9.80;;
45232;SDS011;30969;51.052;17.056;2022-10-18T14:29:26;26.73;;;12.45;;
45232;SDS011;30969;51.052;17.056;2022-10-18T14:34:29;23.95;;;12.45;;
45232;SDS011;30969;51.052;17.056;2022-10-18T14:39:36;17.42;;;8.63;;
45232;SDS011;30969;51.052;17.056;2022-10-18T14:44:41;10.65;;;6.85;;
45232;SDS011;30969;51.052;17.056;2022-10-18T14:49:56;8.55;;;6.68;;
45232;SDS011;30969;51.052;17.056;2022-10-18T14:55:01;9.98;;;5.40;;
45232;SDS011;30969;51.052;17.056;2022-10-18T15:00:06;8.55;;;5.18;;
45232;SDS011;30969;51.052;17.056;2022-10-18T15:05:16;7.10;;;4.75;;
45232;SDS011;30969;51.052;17.056;2022-10-18T15:10:24;6.20;;;4.30;;
45232;SDS011;30969;51.052;17.056;2022-10-18T15:15:31;8.30;;;3.58;;
45232;SDS011;30969;51.052;17.056;2022-10-18T15:20:36;5.97;;;3.15;;
45232;SDS011;30969;51.052;17.056;2022-10-18T15:25:44;6.15;;;3.92;;
45232;SDS011;30969;51.052;17.056;2022-10-18T15:30:48;5.45;;;2.95;;
45232;SDS011;30969;51.052;17.056;2022-10-18T15:35:51;2.13;;;1.85;;
45232;SDS011;30969;51.052;17.056;2022-10-18T15:40:57;4.97;;;1.70;;
45232;SDS011;30969;51.052;17.056;2022-10-18T15:46:01;3.20;;;1.60;;
45232;SDS011;30969;51.052;17.056;2022-10-18T15:51:09;4.28;;;1.80;;
45232;SDS011;30969;51.052;17.056;2022-10-18T15:56:26;1.40;;;1.00;;
45232;SDS011;30969;51.052;17.056;2022-10-18T16:01:34;2.03;;;1.40;;
45232;SDS011;30969;51.052;17.056;2022-10-18T16:06:39;3.38;;;1.80;;
45232;SDS011;30969;51.052;17.056;2022-10-18T16:11:47;3.28;;;1.80;;
45232;SDS011;30969;51.052;17.056;2022-10-18T16:16:57;2.97;;;1.50;;
45232;SDS011;30969;51.052;17.056;2022-10-18T16:22:02;3.15;;;1.40;;
45232;SDS011;30969;51.052;17.056;2022-10-18T16:27:10;2.75;;;1.77;;
45232;SDS011;30969;51.052;17.056;2022-10-18T16:32:13;2.83;;;1.58;;
45232;SDS011;30969;51.052;17.056;2022-10-18T16:37:17;2.70;;;1.75;;
45232;SDS011;30969;51.052;17.056;2022-10-18T16:42:22;4.15;;;3.00;;
45232;SDS011;30969;51.052;17.056;2022-10-18T16:47:25;5.00;;;2.92;;
45232;SDS011;30969;51.052;17.056;2022-10-18T16:52:29;5.53;;;2.63;;
45232;SDS011;30969;51.052;17.056;2022-10-18T16:57:35;4.03;;;2.88;;
45232;SDS011;30969;51.052;17.056;2022-10-18T17:02:38;6.82;;;3.65;;
45232;SDS011;30969;51.052;17.056;2022-10-18T17:07:42;5.10;;;3.72;;
45232;SDS011;30969;51.052;17.056;2022-10-18T17:12:48;5.45;;;3.42;;
45232;SDS011;30969;51.052;17.056;2022-10-18T17:17:53;6.38;;;3.65;;
45232;SDS011;30969;51.052;17.056;2022-10-18T17:22:56;5.32;;;3.85;;
45232;SDS011;30969;51.052;17.056;2022-10-18T17:28:01;6.95;;;3.78;;
45232;SDS011;30969;51.052;17.056;2022-10-18T17:33:04;10.13;;;4.38;;
45232;SDS011;30969;51.052;17.056;2022-10-18T17:38:09;9.77;;;5.13;;
45232;SDS011;30969;51.052;17.056;2022-10-18T17:43:14;6.13;;;4.38;;
45232;SDS011;30969;51.052;17.056;2022-10-18T17:48:17;6.45;;;4.13;;
45232;SDS011;30969;51.052;17.056;2022-10-18T17:53:21;6.13;;;4.45;;
45232;SDS011;30969;51.052;17.056;2022-10-18T17:58:30;6.82;;;4.18;;
45232;SDS011;30969;51.052;17.056;2022-10-18T18:03:34;6.20;;;4.68;;
45232;SDS011;30969;51.052;17.056;2022-10-18T18:08:37;8.68;;;5.07;;
45232;SDS011;30969;51.052;17.056;2022-10-18T18:13:42;8.75;;;5.38;;
45232;SDS011;30969;51.052;17.056;2022-10-18T18:18:46;6.85;;;5.50;;
45232;SDS011;30969;51.052;17.056;2022-10-18T18:23:51;7.00;;;5.22;;
45232;SDS011;30969;51.052;17.056;2022-10-18T18:28:56;7.75;;;4.85;;
45232;SDS011;30969;51.052;17.056;2022-10-18T18:34:00;10.00;;;6.22;;
45232;SDS011;30969;51.052;17.056;2022-10-18T18:39:04;6.55;;;4.90;;
45232;SDS011;30969;51.052;17.056;2022-10-18T18:44:09;6.97;;;5.65;;
45232;SDS011;30969;51.052;17.056;2022-10-18T18:54:24;9.40;;;6.55;;
45232;SDS011;30969;51.052;17.056;2022-10-18T18:59:30;8.02;;;6.50;;
45232;SDS011;30969;51.052;17.056;2022-10-18T19:16:58;8.35;;;6.05;;
45232;SDS011;30969;51.052;17.056;2022-10-18T19:22:02;8.38;;;6.70;;
45232;SDS011;30969;51.052;17.056;2022-10-18T19:27:06;8.57;;;5.68;;
45232;SDS011;30969;51.052;17.056;2022-10-18T19:32:14;11.98;;;7.30;;
45232;SDS011;30969;51.052;17.056;2022-10-18T19:37:19;8.25;;;6.75;;
45232;SDS011;30969;51.052;17.056;2022-10-18T19:42:23;10.25;;;8.15;;
45232;SDS011;30969;51.052;17.056;2022-10-18T19:47:33;11.77;;;7.53;;
45232;SDS011;30969;51.052;17.056;2022-10-18T19:52:39;9.77;;;7.85;;
45232;SDS011;30969;51.052;17.056;2022-10-18T19:57:42;9.43;;;8.00;;
45232;SDS011;30969;51.052;17.056;2022-10-18T20:02:47;8.77;;;6.65;;
45232;SDS011;30969;51.052;17.056;2022-10-18T20:07:50;9.57;;;6.53;;
45232;SDS011;30969;51.052;17.056;2022-10-18T20:12:53;8.52;;;6.25;;
45232;SDS011;30969;51.052;17.056;2022-10-18T20:17:58;8.15;;;6.30;;
45232;SDS011;30969;51.052;17.056;2022-10-18T20:23:01;8.02;;;6.50;;
45232;SDS011;30969;51.052;17.056;2022-10-18T20:28:05;11.73;;;7.68;;
45232;SDS011;30969;51.052;17.056;2022-10-18T20:33:11;8.90;;;7.63;;
45232;SDS011;30969;51.052;17.056;2022-10-18T20:38:14;11.10;;;8.65;;
45232;SDS011;30969;51.052;17.056;2022-10-18T20:43:18;9.15;;;7.47;;
45232;SDS011;30969;51.052;17.056;2022-10-18T20:48:23;10.63;;;7.88;;
45232;SDS011;30969;51.052;17.056;2022-10-18T20:53:27;10.85;;;8.98;;
45232;SDS011;30969;51.052;17.056;2022-10-18T20:58:31;13.90;;;8.20;;
45232;SDS011;30969;51.052;17.056;2022-10-18T21:03:38;11.63;;;8.73;;
45232;SDS011;30969;51.052;17.056;2022-10-18T21:08:42;13.80;;;10.15;;
45232;SDS011;30969;51.052;17.056;2022-10-18T21:13:48;14.95;;;10.50;;
45232;SDS011;30969;51.052;17.056;2022-10-18T21:18:53;13.48;;;9.98;;
45232;SDS011;30969;51.052;17.056;2022-10-18T21:23:57;13.23;;;10.27;;
45232;SDS011;30969;51.052;17.056;2022-10-18T21:29:08;13.48;;;9.27;;
45232;SDS011;30969;51.052;17.056;2022-10-18T21:34:14;13.02;;;9.88;;
45232;SDS011;30969;51.052;17.056;2022-10-18T21:39:19;14.10;;;10.00;;
45232;SDS011;30969;51.052;17.056;2022-10-18T21:44:29;13.68;;;10.35;;
45232;SDS011;30969;51.052;17.056;2022-10-18T21:49:34;13.57;;;9.90;;
45232;SDS011;30969;51.052;17.056;2022-10-18T21:54:37;14.13;;;10.05;;
45232;SDS011;30969;51.052;17.056;2022-10-18T21:59:41;14.32;;;9.32;;
45232;SDS011;30969;51.052;17.056;2022-10-18T22:04:46;15.23;;;9.30;;
45232;SDS011;30969;51.052;17.056;2022-10-18T22:09:50;12.55;;;8.43;;
45232;SDS011;30969;51.052;17.056;2022-10-18T22:14:53;9.77;;;7.90;;
45232;SDS011;30969;51.052;17.056;2022-10-18T22:19:58;14.15;;;8.25;;
45232;SDS011;30969;51.052;17.056;2022-10-18T22:25:01;11.57;;;6.88;;
45232;SDS011;30969;51.052;17.056;2022-10-18T22:30:06;11.18;;;7.40;;
45232;SDS011;30969;51.052;17.056;2022-10-18T22:35:11;9.05;;;6.80;;
45232;SDS011;30969;51.052;17.056;2022-10-18T22:40:14;9.93;;;7.63;;
45232;SDS011;30969;51.052;17.056;2022-10-18T22:45:18;12.25;;;8.35;;
45232;SDS011;30969;51.052;17.056;2022-10-18T22:50:22;10.52;;;7.75;;
45232;SDS011;30969;51.052;17.056;2022-10-18T22:55:26;12.45;;;8.40;;
45232;SDS011;30969;51.052;17.056;2022-10-18T23:00:29;12.90;;;7.70;;
45232;SDS011;30969;51.052;17.056;2022-10-18T23:05:36;10.75;;;7.85;;
45232;SDS011;30969;51.052;17.056;2022-10-18T23:10:41;10.30;;;7.32;;
45232;SDS011;30969;51.052;17.056;2022-10-18T23:15:44;9.95;;;7.93;;
45232;SDS011;30969;51.052;17.056;2022-10-18T23:20:49;10.63;;;8.35;;
45232;SDS011;30969;51.052;17.056;2022-10-18T23:25:53;10.00;;;7.28;;
45232;SDS011;30969;51.052;17.056;2022-10-18T23:30:56;10.85;;;8.05;;
45232;SDS011;30969;51.052;17.056;2022-10-18T23:36:01;10.85;;;7.32;;
45232;SDS011;30969;51.052;17.056;2022-10-18T23:41:05;12.55;;;9.15;;
45232;SDS011;30969;51.052;17.056;2022-10-18T23:46:10;14.15;;;8.27;;
45232;SDS011;30969;51.052;17.056;2022-10-18T23:51:16;10.68;;;8.48;;
45232;SDS011;30969;51.052;17.056;2022-10-18T23:56:19;12.68;;;8.75;;
